TAF and METAR

METAR for Statfjord A - Oil Platform

ENSF 290250Z AUTO 20012KT 9999NDV NCD 12/08 Q1031 W///S3
Report created 29. mai 04:50
report generated by an automatic observation system. wind 12 knots from SSW (200°) visibility > 10km No cloud detected. Temperature 12° with dewpoint at 8° (Humidity 76.52%) Pressure 1031 hPa
No TAF available for Statfjord A - Oil Platform